createdAt,value
2022-11-29T00:00:28.429Z,17.7
2022-11-29T00:05:16.900Z,18.0
2022-11-29T00:10:22.912Z,17.8
2022-11-29T00:15:28.589Z,18.8
2022-11-29T00:20:26.742Z,17.8
2022-11-29T00:25:23.646Z,18.6
2022-11-29T00:30:29.746Z,18.8
2022-11-29T00:35:18.767Z,18.6
2022-11-29T00:40:28.588Z,18.5
2022-11-29T00:45:31.014Z,18.0
2022-11-29T00:50:20.150Z,18.6
2022-11-29T00:55:26.056Z,17.6
2022-11-29T01:00:41.335Z,17.6
2022-11-29T01:05:20.528Z,17.8
2022-11-29T01:10:26.506Z,18.3
2022-11-29T01:15:32.229Z,20.0
2022-11-29T01:20:26.669Z,19.0
2022-11-29T01:25:27.312Z,18.6
2022-11-29T01:30:16.398Z,18.1
2022-11-29T01:35:22.552Z,18.5
2022-11-29T01:40:29.507Z,19.2
2022-11-29T01:45:17.470Z,19.1
2022-11-29T01:50:23.662Z,19.2
2022-11-29T01:55:29.642Z,19.8
2022-11-29T02:00:19.646Z,20.0
2022-11-29T02:05:25.339Z,20.2
2022-11-29T02:10:30.339Z,19.5
2022-11-29T02:15:19.780Z,19.9
2022-11-29T02:20:26.526Z,19.5
2022-11-29T02:25:31.931Z,18.8
2022-11-29T02:30:20.898Z,19.2
2022-11-29T02:35:26.954Z,19.3
2022-11-29T02:40:34.871Z,19.1
2022-11-29T02:45:22.132Z,18.6
2022-11-29T02:50:28.342Z,18.1
2022-11-29T02:55:17.193Z,19.0
2022-11-29T03:00:55.361Z,19.0
2022-11-29T03:05:28.835Z,18.0
2022-11-29T03:10:17.683Z,18.5
2022-11-29T03:15:23.441Z,19.3
2022-11-29T03:20:31.463Z,17.6
2022-11-29T03:25:18.589Z,18.0
2022-11-29T03:30:24.635Z,17.7
2022-11-29T03:35:30.681Z,17.6
2022-11-29T03:40:20.796Z,17.4
2022-11-29T03:45:25.866Z,17.1
2022-11-29T03:50:31.938Z,17.8
2022-11-29T03:55:20.863Z,17.5
2022-11-29T04:01:23.997Z,17.1
2022-11-29T04:05:33.412Z,17.8
2022-11-29T04:10:21.491Z,16.3
2022-11-29T04:15:27.058Z,15.6
2022-11-29T04:20:16.773Z,16.6
2022-11-29T04:25:22.226Z,16.4
2022-11-29T04:30:28.305Z,15.9
2022-11-29T04:35:17.298Z,15.4
2022-11-29T04:40:24.283Z,15.7
2022-11-29T04:45:29.562Z,15.1
2022-11-29T04:50:18.457Z,14.9
2022-11-29T04:55:30.652Z,15.8
2022-11-29T05:00:31.495Z,15.5
2022-11-29T05:05:19.054Z,15.8
2022-11-29T05:10:25.096Z,15.5
2022-11-29T05:15:31.820Z,14.7
2022-11-29T05:20:22.348Z,14.3
2022-11-29T05:25:26.933Z,15.1
2022-11-29T05:30:32.971Z,14.8
2022-11-29T05:35:22.013Z,15.4
2022-11-29T05:40:29.580Z,14.3
2022-11-29T05:45:17.132Z,13.7
2022-11-29T05:50:23.178Z,14.5
2022-11-29T05:55:29.254Z,14.4
2022-11-29T06:00:19.012Z,14.2
2022-11-29T06:05:23.580Z,14.1
2022-11-29T06:10:29.633Z,14.0
2022-11-29T06:15:18.507Z,14.6
2022-11-29T06:20:25.801Z,14.6
2022-11-29T06:25:30.695Z,14.7
2022-11-29T06:30:19.726Z,13.9
2022-11-29T06:35:25.741Z,23.6
2022-11-29T06:40:33.369Z,27.2
2022-11-29T06:45:20.823Z,17.5
2022-11-29T06:50:27.003Z,13.5
2022-11-29T06:55:33.674Z,13.5
2022-11-29T07:00:23.291Z,13.5
2022-11-29T07:05:27.512Z,13.7
2022-11-29T07:10:16.453Z,13.5
2022-11-29T07:15:22.171Z,13.5
2022-11-29T07:20:29.215Z,13.3
2022-11-29T07:25:17.264Z,13.9
2022-11-29T07:30:23.343Z,14.2
2022-11-29T07:35:29.314Z,12.9
2022-11-29T07:40:19.480Z,12.9
2022-11-29T07:45:24.458Z,13.2
2022-11-29T07:50:30.731Z,13.3
2022-11-29T07:55:19.617Z,13.1
2022-11-29T08:00:26.788Z,13.4
2022-11-29T08:05:31.824Z,13.4
2022-11-29T08:10:20.194Z,14.1
2022-11-29T08:15:26.783Z,20.0
2022-11-29T08:20:33.968Z,14.6
2022-11-29T08:25:21.865Z,13.3
2022-11-29T08:30:28.847Z,12.9
2022-11-29T08:35:16.937Z,14.3
2022-11-29T08:40:24.311Z,15.6
2022-11-29T08:45:29.056Z,13.8
2022-11-29T08:50:18.216Z,13.4
2022-11-29T08:55:24.213Z,13.5
2022-11-29T09:00:30.915Z,13.3
2022-11-29T09:05:19.009Z,13.8
2022-11-29T09:10:25.039Z,13.9
2022-11-29T09:15:31.573Z,13.2
2022-11-29T09:20:21.258Z,13.7
2022-11-29T09:25:26.612Z,13.0
2022-11-29T09:30:32.848Z,16.7
2022-11-29T09:35:21.623Z,17.6
2022-11-29T09:40:28.856Z,19.1
2022-11-29T09:45:16.746Z,15.0
2022-11-29T09:50:22.816Z,13.6
2022-11-29T09:55:28.927Z,14.7
2022-11-29T10:00:19.015Z,12.8
2022-11-29T10:05:23.379Z,12.7
2022-11-29T10:10:29.363Z,14.1
2022-11-29T10:15:18.051Z,11.9
2022-11-29T10:20:25.904Z,11.9
2022-11-29T10:25:30.226Z,11.9
2022-11-29T10:30:19.273Z,12.3
2022-11-29T10:35:25.322Z,11.6
2022-11-29T10:40:32.696Z,12.4
2022-11-29T10:45:20.447Z,12.1
2022-11-29T10:50:26.475Z,11.5
2022-11-29T10:55:33.683Z,11.5
2022-11-29T11:00:22.676Z,12.1
2022-11-29T11:05:27.022Z,14.6
2022-11-29T11:10:15.931Z,12.3
2022-11-29T11:15:22.269Z,11.6
2022-11-29T11:20:29.661Z,12.5
2022-11-29T11:25:17.464Z,12.8
2022-11-29T11:30:23.554Z,15.9
2022-11-29T11:35:29.528Z,17.7
2022-11-29T11:40:19.842Z,37.6
2022-11-29T11:45:24.680Z,16.4
2022-11-29T11:50:30.689Z,11.9
2022-11-29T11:55:19.877Z,10.3
2022-11-29T12:01:01.978Z,10.1
2022-11-29T12:05:31.118Z,9.8
2022-11-29T12:10:20.240Z,16.4
2022-11-29T12:15:25.995Z,10.8
2022-11-29T12:20:42.933Z,10.8
2022-11-29T12:25:21.088Z,11.2
2022-11-29T12:30:27.149Z,10.0
2022-11-29T12:35:19.043Z,10.3
2022-11-29T12:40:30.486Z,19.8
2022-11-29T12:45:28.301Z,52.4
2022-11-29T12:50:17.386Z,29.7
2022-11-29T12:55:23.453Z,18.0
2022-11-29T13:00:47.634Z,13.6
2022-11-29T13:10:23.940Z,11.1
2022-11-29T13:15:31.815Z,10.5
2022-11-29T13:20:21.000Z,10.8
2022-11-29T13:25:25.904Z,12.1
2022-11-29T13:30:31.933Z,10.0
2022-11-29T13:35:20.944Z,8.5
2022-11-29T13:40:38.169Z,10.5
2022-11-29T13:45:33.087Z,7.6
2022-11-29T13:50:22.058Z,9.7
2022-11-29T13:55:28.412Z,14.3
2022-11-29T14:00:18.306Z,20.6
2022-11-29T14:05:24.120Z,8.7
2022-11-29T14:10:29.490Z,7.9
2022-11-29T14:15:17.444Z,7.7
2022-11-29T14:20:24.511Z,7.1
2022-11-29T14:26:06.292Z,6.9
2022-11-29T14:30:18.580Z,7.2
2022-11-29T14:35:24.586Z,9.9
2022-11-29T14:40:31.929Z,7.3
2022-11-29T14:45:19.701Z,6.7
2022-11-29T14:50:25.737Z,13.9
2022-11-29T14:55:31.892Z,13.4
2022-11-29T15:00:21.907Z,6.9
2022-11-29T15:05:26.148Z,6.3
2022-11-29T15:10:32.097Z,6.8
2022-11-29T15:15:20.991Z,6.5
2022-11-29T15:20:28.405Z,6.9
2022-11-29T15:25:16.979Z,6.5
2022-11-29T15:30:22.234Z,8.5
2022-11-29T15:35:28.242Z,8.1
2022-11-29T15:40:18.290Z,8.0
2022-11-29T15:45:23.336Z,7.7
2022-11-29T15:50:29.430Z,11.6
2022-11-29T15:55:18.470Z,7.3
2022-11-29T16:00:25.580Z,6.6
2022-11-29T16:05:30.746Z,6.9
2022-11-29T16:10:23.446Z,7.3
2022-11-29T16:15:25.763Z,6.7
2022-11-29T16:20:32.876Z,7.2
2022-11-29T16:25:20.794Z,7.5
2022-11-29T16:30:26.955Z,10.3
2022-11-29T16:35:33.445Z,7.8
2022-11-29T16:40:29.159Z,7.2
2022-11-29T16:45:28.141Z,7.1
2022-11-29T16:50:17.073Z,7.6
2022-11-29T16:55:23.228Z,7.8
2022-11-29T17:00:48.291Z,7.9
2022-11-29T17:05:17.688Z,8.8
2022-11-29T17:10:23.672Z,7.6
2022-11-29T17:15:29.415Z,7.2
2022-11-29T17:20:31.840Z,7.5
2022-11-29T17:25:24.454Z,6.8
2022-11-29T17:30:30.637Z,7.4
2022-11-29T17:35:19.580Z,7.3
2022-11-29T17:40:27.016Z,7.4
2022-11-29T17:45:34.620Z,6.7
2022-11-29T17:50:20.790Z,7.8
2022-11-29T17:55:29.549Z,8.1
2022-11-29T18:00:34.225Z,7.8
2022-11-29T18:05:21.216Z,7.6
2022-11-29T18:10:27.329Z,6.7
2022-11-29T18:15:15.923Z,7.0
2022-11-29T18:20:23.148Z,7.3
2022-11-29T18:25:38.808Z,7.1
2022-11-29T18:30:17.117Z,8.0
2022-11-29T18:35:24.155Z,6.6
2022-11-29T18:40:30.052Z,6.7
2022-11-29T18:45:18.225Z,7.1
2022-11-29T18:50:24.354Z,6.9
2022-11-29T18:55:30.407Z,7.6
2022-11-29T19:00:20.274Z,9.1
2022-11-29T19:05:26.269Z,10.2
2022-11-29T19:10:31.882Z,9.8
2022-11-29T19:15:20.526Z,11.5
2022-11-29T19:20:28.950Z,11.6
2022-11-29T19:25:32.750Z,8.6
2022-11-29T19:30:21.750Z,7.5
2022-11-29T19:35:28.059Z,7.6
2022-11-29T19:40:17.450Z,8.7
2022-11-29T19:45:22.913Z,9.1
2022-11-29T19:50:29.025Z,9.6
2022-11-29T19:55:18.052Z,10.3
2022-11-29T20:00:25.354Z,8.5
2022-11-29T20:05:29.634Z,8.6
2022-11-29T20:10:18.505Z,11.1
2022-11-29T20:15:24.209Z,10.1
2022-11-29T20:20:31.217Z,8.7
2022-11-29T20:25:19.345Z,7.8
2022-11-29T20:30:25.392Z,7.2
2022-11-29T20:35:31.814Z,7.9
2022-11-29T20:40:21.347Z,7.6
2022-11-29T20:45:26.596Z,7.9
2022-11-29T20:50:32.740Z,9.0
2022-11-29T20:55:21.648Z,19.3
2022-11-29T21:00:37.406Z,15.3
2022-11-29T21:05:16.061Z,9.8
2022-11-29T21:10:22.159Z,8.2
2022-11-29T21:15:28.738Z,8.6
2022-11-29T21:20:23.698Z,8.1
2022-11-29T21:25:23.880Z,7.3
2022-11-29T21:30:29.964Z,7.7
2022-11-29T21:35:19.263Z,8.5
2022-11-29T21:40:26.214Z,8.0
2022-11-29T21:45:31.967Z,8.0
2022-11-29T21:50:20.141Z,7.9
2022-11-29T21:55:31.706Z,8.0
2022-11-29T22:00:37.304Z,7.4
2022-11-29T22:05:20.689Z,7.4
2022-11-29T22:10:26.800Z,7.9
2022-11-29T22:15:32.785Z,8.0
2022-11-29T22:20:33.793Z,8.1
2022-11-29T22:25:27.601Z,8.9
2022-11-29T22:30:16.623Z,9.4
2022-11-29T22:35:22.695Z,10.2
2022-11-29T22:40:30.259Z,10.4
2022-11-29T22:45:17.865Z,10.5
2022-11-29T22:50:23.899Z,11.0
2022-11-29T22:55:29.998Z,11.5
2022-11-29T23:00:27.981Z,12.4
2022-11-29T23:05:27.253Z,12.6
2022-11-29T23:10:30.655Z,12.3
2022-11-29T23:15:19.249Z,12.9
2022-11-29T23:20:26.286Z,13.4
2022-11-29T23:25:31.370Z,13.3
2022-11-29T23:30:20.441Z,13.4
2022-11-29T23:35:26.490Z,13.2
2022-11-29T23:40:33.395Z,13.9
2022-11-29T23:45:21.606Z,13.9
2022-11-29T23:50:27.666Z,13.8
2022-11-29T23:55:16.684Z,14.1
